Time;durP1;ratioP1;P1;durP2;ratioP2;P2;SDS_P1;SDS_P2;PMS_P1;PMS_P2;Temp;Humidity;BMP_temperature;BMP_pressure;BME280_temperature;BME280_humidity;BME280_pressure;Samples;Min_cycle;Max_cycle;Signal;HPM_P1;HPM_P2
2022/09/21 00:00:49;;;;;;;16.88;5.32;;;7.10;99.90;;;;;;5011702;28;20049;-75
2022/09/21 00:03:15;;;;;;;23.25;5.47;;;7.00;99.90;;;;;;5012029;28;20129;-74
2022/09/21 00:05:42;;;;;;;13.80;5.23;;;7.10;99.90;;;;;;4993258;28;20036;-74
2022/09/21 00:08:11;;;;;;;15.18;4.95;;;7.00;99.90;;;;;;5012445;28;20053;-74
2022/09/21 00:10:37;;;;;;;14.73;5.28;;;7.00;99.90;;;;;;5011732;28;20398;-76
2022/09/21 00:13:03;;;;;;;13.55;5.65;;;7.00;99.90;;;;;;4994710;28;20053;-75
2022/09/21 00:15:30;;;;;;;14.20;4.97;;;6.90;99.90;;;;;;4995121;28;20050;-75
2022/09/21 00:17:58;;;;;;;14.90;4.75;;;6.90;99.90;;;;;;5010123;28;20300;-74
2022/09/21 00:20:25;;;;;;;14.25;4.78;;;6.90;99.90;;;;;;5010181;28;20046;-75
2022/09/21 00:22:51;;;;;;;16.75;4.80;;;6.90;99.90;;;;;;4994529;28;20050;-74
2022/09/21 00:25:18;;;;;;;18.65;5.10;;;6.90;99.90;;;;;;5010593;28;20049;-75
2022/09/21 00:27:50;;;;;;;14.82;5.13;;;6.90;99.90;;;;;;5011767;28;20506;-75
2022/09/21 00:30:16;;;;;;;15.35;4.88;;;6.90;99.90;;;;;;5012477;28;20125;-75
2022/09/21 00:32:42;;;;;;;12.45;4.82;;;6.80;99.90;;;;;;5010166;28;20045;-78
2022/09/21 00:35:08;;;;;;;14.02;5.10;;;6.80;99.90;;;;;;5010532;28;20057;-75
2022/09/21 00:37:35;;;;;;;14.80;4.80;;;6.90;99.90;;;;;;5011144;28;20120;-83
2022/09/21 00:40:01;;;;;;;15.45;5.15;;;6.80;99.90;;;;;;5010443;28;20060;-75
2022/09/21 00:42:31;;;;;;;13.75;4.35;;;6.80;99.90;;;;;;5012263;28;20042;-75
2022/09/21 00:44:57;;;;;;;16.73;5.28;;;6.80;99.90;;;;;;4993277;28;20069;-75
2022/09/21 00:47:41;;;;;;;15.13;5.17;;;6.80;99.90;;;;;;4994592;28;20056;-75
2022/09/21 00:50:15;;;;;;;15.48;5.13;;;6.80;99.90;;;;;;5009294;28;20491;-75
2022/09/21 00:52:44;;;;;;;20.25;5.55;;;6.80;99.90;;;;;;4991440;28;20068;-75
2022/09/21 00:55:14;;;;;;;15.95;5.78;;;6.80;99.90;;;;;;4990962;28;20044;-74
2022/09/21 00:57:41;;;;;;;14.38;5.25;;;6.80;99.90;;;;;;4990252;28;20061;-75
2022/09/21 01:00:09;;;;;;;14.50;5.45;;;6.70;99.90;;;;;;4990792;28;20344;-76
2022/09/21 01:02:37;;;;;;;16.40;5.72;;;6.80;99.90;;;;;;4991620;28;20387;-82
2022/09/21 01:05:07;;;;;;;16.00;4.97;;;6.70;99.90;;;;;;5009229;28;20116;-73
2022/09/21 01:07:38;;;;;;;22.13;6.03;;;6.70;99.90;;;;;;5011774;28;20394;-74
2022/09/21 01:10:11;;;;;;;21.25;5.55;;;6.80;99.90;;;;;;5011869;28;20368;-75
2022/09/21 01:12:53;;;;;;;17.85;5.95;;;6.70;99.90;;;;;;5010395;28;20471;-80
2022/09/21 01:15:34;;;;;;;14.95;5.28;;;6.60;99.90;;;;;;5008918;28;20042;-74
2022/09/21 01:18:19;;;;;;;17.15;5.47;;;6.60;99.90;;;;;;4994132;28;20038;-77
2022/09/21 01:20:51;;;;;;;15.70;4.88;;;6.60;99.90;;;;;;5012976;28;20045;-76
2022/09/21 01:24:01;;;;;;;18.85;6.38;;;6.60;99.90;;;;;;5012401;28;20056;-76
2022/09/21 01:26:48;;;;;;;14.95;5.28;;;6.60;99.90;;;;;;4972224;28;20097;-76
2022/09/21 01:29:31;;;;;;;17.40;5.10;;;6.50;99.90;;;;;;5009990;28;20502;-76
2022/09/21 01:32:15;;;;;;;15.23;5.18;;;6.50;99.90;;;;;;5011728;28;20531;-77
2022/09/21 01:35:20;;;;;;;13.27;5.03;;;6.50;99.90;;;;;;5013495;28;20057;-76
2022/09/21 01:38:04;;;;;;;14.13;4.72;;;6.50;99.90;;;;;;5000792;28;20065;-76
2022/09/21 01:40:38;;;;;;;16.88;5.10;;;6.40;99.90;;;;;;5012063;28;20050;-77
2022/09/21 01:43:08;;;;;;;16.40;5.22;;;6.40;99.90;;;;;;5012990;28;20103;-76
2022/09/21 01:45:39;;;;;;;16.27;5.28;;;6.40;99.90;;;;;;4995172;28;20049;-76
2022/09/21 01:48:06;;;;;;;12.75;5.07;;;6.40;99.90;;;;;;5011643;28;20042;-77
2022/09/21 01:50:39;;;;;;;;;;;6.30;99.90;;;;;;4995763;28;20569;-77
2022/09/21 01:53:18;;;;;;;19.00;5.10;;;6.30;99.90;;;;;;5012984;28;19932;-77
2022/09/21 01:55:51;;;;;;;20.08;5.38;;;6.30;99.90;;;;;;5014757;28;20046;-78
2022/09/21 01:58:23;;;;;;;15.95;5.35;;;6.30;99.90;;;;;;5016275;28;20092;-77
2022/09/21 02:00:54;;;;;;;13.98;4.75;;;6.20;99.90;;;;;;5016323;28;20137;-76
2022/09/21 02:03:34;;;;;;;17.00;5.70;;;6.20;99.90;;;;;;5016446;28;20455;-78
2022/09/21 02:06:00;;;;;;;15.80;5.10;;;6.20;99.90;;;;;;5015758;28;20203;-78
2022/09/21 02:08:31;;;;;;;13.55;4.38;;;6.20;99.90;;;;;;5016963;28;20053;-78
2022/09/21 02:11:02;;;;;;;15.50;4.85;;;6.20;99.90;;;;;;4999616;28;20050;-78
2022/09/21 02:13:37;;;;;;;15.57;4.25;;;6.10;99.90;;;;;;5016993;28;20073;-77
2022/09/21 02:16:05;;;;;;;15.70;5.10;;;6.10;99.90;;;;;;5015441;28;20053;-78
2022/09/21 02:18:50;;;;;;;16.35;5.25;;;6.10;99.90;;;;;;5016247;28;20053;-77
2022/09/21 02:21:43;;;;;;;15.75;5.35;;;6.10;99.90;;;;;;5015015;28;20058;-77
2022/09/21 02:24:30;;;;;;;15.50;5.25;;;6.10;99.90;;;;;;5014871;28;20053;-80
2022/09/21 02:27:10;;;;;;;19.08;4.78;;;6.10;99.90;;;;;;5016613;28;20112;-78
2022/09/21 02:29:41;;;;;;;14.32;5.00;;;6.00;99.90;;;;;;5016742;28;20042;-78
2022/09/21 02:32:36;;;;;;;14.13;5.60;;;6.00;99.90;;;;;;5015390;28;20057;-78
2022/09/21 02:35:16;;;;;;;16.08;4.95;;;6.00;99.90;;;;;;4989153;28;20050;-79
2022/09/21 02:37:54;;;;;;;15.85;5.13;;;5.90;99.90;;;;;;5015818;28;20045;-78
2022/09/21 02:40:42;;;;;;;19.40;5.28;;;5.90;99.90;;;;;;5014724;28;20056;-79
2022/09/21 02:43:15;;;;;;;16.25;5.25;;;5.90;99.90;;;;;;5016628;28;20078;-78
2022/09/21 02:45:52;;;;;;;13.13;5.30;;;5.90;99.90;;;;;;5015697;28;20503;-78
2022/09/21 02:48:24;;;;;;;15.73;5.80;;;5.90;99.90;;;;;;5016343;28;20049;-78
2022/09/21 02:50:56;;;;;;;18.13;5.72;;;5.90;99.90;;;;;;5015659;28;20120;-79
2022/09/21 02:53:35;;;;;;;19.95;6.47;;;5.90;99.90;;;;;;5017181;28;20459;-79
2022/09/21 02:56:05;;;;;;;15.77;6.45;;;5.80;99.90;;;;;;5016674;28;20050;-80
2022/09/21 02:58:44;;;;;;;18.55;6.90;;;5.80;99.90;;;;;;5017184;28;20045;-79
2022/09/21 03:01:13;;;;;;;14.18;6.40;;;5.80;99.90;;;;;;4999524;28;20045;-79
2022/09/21 03:03:38;;;;;;;21.25;7.18;;;5.80;99.90;;;;;;5015728;28;20140;-78
2022/09/21 03:06:04;;;;;;;22.73;7.43;;;5.80;99.90;;;;;;4999063;28;20077;-78
2022/09/21 03:08:30;;;;;;;21.27;7.35;;;5.80;99.90;;;;;;5014838;28;20542;-78
2022/09/21 03:10:56;;;;;;;19.05;6.60;;;5.80;99.90;;;;;;5017445;28;20107;-77
2022/09/21 03:13:23;;;;;;;18.27;6.53;;;5.80;99.90;;;;;;5001971;28;20046;-77
2022/09/21 03:15:49;;;;;;;20.45;6.85;;;5.80;99.90;;;;;;5020544;28;20127;-81
2022/09/21 03:18:15;;;;;;;17.73;6.88;;;5.80;99.90;;;;;;5019744;28;20045;-78
2022/09/21 03:20:46;;;;;;;17.63;7.07;;;5.70;99.90;;;;;;5018337;28;20057;-79
2022/09/21 03:23:13;;;;;;;20.90;6.45;;;5.70;99.90;;;;;;5021366;28;20088;-77
2022/09/21 03:25:39;;;;;;;13.93;5.83;;;5.70;99.90;;;;;;5020909;28;20128;-77
2022/09/21 03:28:05;;;;;;;17.42;6.38;;;5.60;99.90;;;;;;5020860;28;20076;-79
2022/09/21 03:30:31;;;;;;;16.42;5.63;;;5.60;99.90;;;;;;5019411;28;20065;-76
2022/09/21 03:32:57;;;;;;;17.25;5.82;;;5.60;99.90;;;;;;5001282;28;20107;-79
2022/09/21 03:35:27;;;;;;;15.32;5.63;;;5.60;99.90;;;;;;5016941;28;20060;-78
2022/09/21 03:37:54;;;;;;;14.80;6.10;;;5.50;99.90;;;;;;5018463;28;20049;-78
2022/09/21 03:40:19;;;;;;;11.00;4.93;;;5.50;99.90;;;;;;4985767;28;20069;-80
2022/09/21 03:42:45;;;;;;;15.75;5.70;;;5.50;99.90;;;;;;5016807;28;20137;-79
2022/09/21 03:45:11;;;;;;;13.88;5.85;;;5.50;99.90;;;;;;5016405;28;20038;-79
2022/09/21 03:47:39;;;;;;;15.32;5.72;;;5.50;99.90;;;;;;5019047;28;20054;-79
2022/09/21 03:50:05;;;;;;;;;;;5.50;99.90;;;;;;5001053;28;20053;-77
2022/09/21 03:52:31;;;;;;;18.77;5.72;;;5.50;99.90;;;;;;5016266;28;19944;-78
2022/09/21 03:54:57;;;;;;;16.73;5.60;;;5.50;99.90;;;;;;5017241;28;20048;-77
2022/09/21 03:57:23;;;;;;;15.20;5.45;;;5.50;99.90;;;;;;5017145;28;20124;-78
2022/09/21 03:59:49;;;;;;;16.47;6.00;;;5.40;99.90;;;;;;5015988;28;20048;-79
2022/09/21 04:02:15;;;;;;;18.35;6.50;;;5.40;99.90;;;;;;5015580;28;20050;-79
2022/09/21 04:04:41;;;;;;;13.68;5.32;;;5.40;99.90;;;;;;5015876;28;20053;-78
2022/09/21 04:07:07;;;;;;;17.13;5.75;;;5.30;99.90;;;;;;5016483;28;20053;-78
2022/09/21 04:09:33;;;;;;;13.27;5.43;;;5.30;99.90;;;;;;5016547;28;20080;-78
2022/09/21 04:11:59;;;;;;;15.90;5.40;;;5.30;99.90;;;;;;5000844;28;20049;-78
2022/09/21 04:14:24;;;;;;;15.23;5.15;;;5.30;99.90;;;;;;5017445;28;20126;-80
2022/09/21 04:16:50;;;;;;;15.00;5.18;;;5.30;99.90;;;;;;5017566;28;20049;-78
2022/09/21 04:19:17;;;;;;;21.17;5.93;;;5.30;99.90;;;;;;5017146;28;20058;-79
2022/09/21 04:21:43;;;;;;;15.48;5.90;;;5.20;99.90;;;;;;5018330;28;20041;-83
2022/09/21 04:24:09;;;;;;;14.73;5.50;;;5.20;99.90;;;;;;5016399;28;20058;-80
2022/09/21 04:26:36;;;;;;;15.93;5.78;;;5.20;99.90;;;;;;5021034;28;20521;-79
2022/09/21 04:29:04;;;;;;;15.02;5.97;;;5.20;99.90;;;;;;5020798;28;20103;-79
2022/09/21 04:31:30;;;;;;;16.33;5.65;;;5.20;99.90;;;;;;5018315;28;20481;-83
2022/09/21 04:33:57;;;;;;;20.58;6.93;;;5.20;99.90;;;;;;5017975;28;20045;-85
2022/09/21 04:36:24;;;;;;;18.20;6.55;;;5.20;99.90;;;;;;5015668;28;20050;-79
2022/09/21 04:38:50;;;;;;;;;;;5.10;99.90;;;;;;5017419;28;20455;-78
2022/09/21 04:41:17;;;;;;;17.20;6.30;;;5.10;99.90;;;;;;5016894;28;19960;-79
2022/09/21 04:43:47;;;;;;;18.48;6.22;;;5.10;99.90;;;;;;5016867;28;20050;-79
2022/09/21 04:46:15;;;;;;;28.30;8.02;;;5.10;99.90;;;;;;5017833;28;20050;-80
2022/09/21 04:48:41;;;;;;;23.75;8.10;;;5.00;99.90;;;;;;5018883;28;20070;-79
2022/09/21 04:51:08;;;;;;;21.08;8.00;;;5.00;99.90;;;;;;5019146;28;20085;-79
2022/09/21 04:53:36;;;;;;;19.45;6.65;;;5.00;99.90;;;;;;5019113;28;20046;-79
2022/09/21 04:56:03;;;;;;;20.25;6.45;;;5.00;99.90;;;;;;5017689;28;20054;-79
2022/09/21 04:58:28;;;;;;;16.70;5.68;;;4.90;99.90;;;;;;5016949;28;20069;-80
2022/09/21 05:00:55;;;;;;;18.75;6.28;;;4.90;99.90;;;;;;5017739;28;20050;-79
2022/09/21 05:03:22;;;;;;;15.52;6.50;;;4.90;99.90;;;;;;5000384;28;20127;-78
2022/09/21 05:05:52;;;;;;;16.08;6.22;;;4.90;99.90;;;;;;5019730;28;20054;-78
2022/09/21 05:11:02;;;;;;;24.83;7.95;;;4.90;99.90;;;;;;5017084;28;20486;-79
2022/09/21 05:13:28;;;;;;;25.58;9.02;;;4.90;99.90;;;;;;5017666;28;20061;-79
2022/09/21 05:15:53;;;;;;;26.95;8.60;;;4.90;99.90;;;;;;5016675;28;20131;-79
2022/09/21 05:18:19;;;;;;;27.27;9.65;;;4.90;99.90;;;;;;5016339;28;20081;-79
2022/09/21 05:20:52;;;;;;;26.42;9.15;;;5.00;99.90;;;;;;5016920;28;20128;-80
2022/09/21 05:23:17;;;;;;;18.27;7.10;;;4.90;99.90;;;;;;5018108;28;20089;-78
2022/09/21 05:25:43;;;;;;;21.35;7.30;;;4.90;99.90;;;;;;5017078;28;20073;-79
2022/09/21 05:28:09;;;;;;;20.00;7.68;;;4.90;99.90;;;;;;5014701;28;20042;-79
2022/09/21 05:30:35;;;;;;;20.42;8.30;;;4.90;99.90;;;;;;4999719;28;20072;-78
2022/09/21 05:33:03;;;;;;;17.30;7.07;;;4.90;99.90;;;;;;5002728;28;20073;-86
2022/09/21 05:35:53;;;;;;;16.92;7.63;;;4.90;99.90;;;;;;5019930;28;20054;-78
2022/09/21 05:38:19;;;;;;;21.20;7.65;;;4.90;99.90;;;;;;5021745;28;20061;-80
2022/09/21 05:40:49;;;;;;;21.27;7.65;;;4.90;99.90;;;;;;4989385;28;20192;-78
2022/09/21 05:43:15;;;;;;;21.45;8.07;;;4.90;99.90;;;;;;5004373;28;20062;-79
2022/09/21 05:45:50;;;;;;;22.55;8.40;;;5.00;99.90;;;;;;5021362;28;20089;-80
2022/09/21 05:48:25;;;;;;;22.63;7.95;;;5.00;99.90;;;;;;5003914;28;20046;-80
2022/09/21 05:51:00;;;;;;;18.95;7.57;;;5.00;99.90;;;;;;5019931;28;20533;-79
2022/09/21 05:53:29;;;;;;;18.05;7.03;;;5.00;99.90;;;;;;5019894;28;20052;-80
2022/09/21 05:55:56;;;;;;;24.30;7.88;;;5.10;99.90;;;;;;5018284;28;20050;-78
2022/09/21 05:59:01;;;;;;;23.92;8.73;;;5.10;99.90;;;;;;5018225;28;20049;-79
2022/09/21 06:02:07;;;;;;;22.98;8.32;;;5.10;99.90;;;;;;4968561;28;20558;-79
2022/09/21 06:04:33;;;;;;;20.17;8.15;;;5.20;99.90;;;;;;5003520;28;20056;-79
2022/09/21 06:06:59;;;;;;;17.92;7.22;;;5.20;99.90;;;;;;4999975;28;20119;-78
2022/09/21 06:09:26;;;;;;;22.88;6.95;;;5.30;99.90;;;;;;5016861;28;20042;-82
2022/09/21 06:11:52;;;;;;;24.27;7.30;;;5.30;99.90;;;;;;5016621;28;20081;-78
2022/09/21 06:14:24;;;;;;;19.80;7.45;;;5.30;99.90;;;;;;5017105;28;20449;-78
2022/09/21 06:16:50;;;;;;;21.55;7.38;;;5.30;99.90;;;;;;5015633;28;20419;-78
2022/09/21 06:19:16;;;;;;;18.63;7.72;;;5.40;99.90;;;;;;5016747;28;20060;-80
2022/09/21 06:21:42;;;;;;;17.63;6.40;;;5.50;99.90;;;;;;4999441;28;20482;-80
2022/09/21 06:24:08;;;;;;;17.13;6.53;;;5.50;99.90;;;;;;4998929;28;20058;-87
2022/09/21 06:26:34;;;;;;;21.27;7.00;;;5.60;99.90;;;;;;5015369;28;20553;-76
2022/09/21 06:29:00;;;;;;;25.60;7.10;;;5.60;99.90;;;;;;5014841;28;20042;-79
2022/09/21 06:31:26;;;;;;;19.85;8.38;;;5.70;99.90;;;;;;5014948;28;20050;-79
2022/09/21 06:33:52;;;;;;;18.77;8.90;;;5.70;99.90;;;;;;5015967;28;20046;-79
2022/09/21 06:36:18;;;;;;;19.75;7.68;;;5.80;99.90;;;;;;5015795;28;20045;-80
2022/09/21 06:38:44;;;;;;;17.73;7.75;;;5.80;99.90;;;;;;5014681;28;20045;-79
2022/09/21 06:41:10;;;;;;;25.45;9.20;;;5.90;99.90;;;;;;4998365;28;20491;-84
2022/09/21 06:43:36;;;;;;;18.35;8.70;;;5.90;99.90;;;;;;5015418;28;20057;-79
2022/09/21 06:46:02;;;;;;;20.23;10.38;;;6.00;99.90;;;;;;5015818;28;20501;-78
2022/09/21 06:48:29;;;;;;;20.27;9.00;;;6.10;99.90;;;;;;5015448;28;20534;-79
2022/09/21 06:51:00;;;;;;;23.20;9.45;;;6.20;99.90;;;;;;4999224;28;20050;-79
2022/09/21 06:53:27;;;;;;;25.60;10.00;;;6.30;99.90;;;;;;5015675;28;20041;-79
2022/09/21 06:55:53;;;;;;;20.85;9.20;;;6.40;99.90;;;;;;5014639;28;20064;-79
2022/09/21 06:58:19;;;;;;;18.27;8.27;;;6.40;99.90;;;;;;4998107;28;20042;-79
2022/09/21 07:00:45;;;;;;;19.15;9.35;;;6.50;99.90;;;;;;4982708;28;20050;-78
2022/09/21 07:03:12;;;;;;;23.60;9.82;;;6.70;99.90;;;;;;5014326;28;20042;-78
2022/09/21 07:05:38;;;;;;;17.85;9.35;;;6.70;99.90;;;;;;5015363;28;20061;-78
2022/09/21 07:08:04;;;;;;;22.67;10.03;;;6.90;99.90;;;;;;5014467;28;20058;-78
2022/09/21 07:10:30;;;;;;;24.55;10.10;;;7.00;99.90;;;;;;5013873;28;20281;-79
2022/09/21 07:13:02;;;;;;;20.08;10.43;;;7.10;99.90;;;;;;5014442;28;20111;-79
2022/09/21 07:15:28;;;;;;;22.77;9.80;;;7.20;99.90;;;;;;5014915;28;20478;-79
2022/09/21 07:17:54;;;;;;;23.15;9.60;;;7.30;99.90;;;;;;5014681;28;20340;-79
2022/09/21 07:20:20;;;;;;;21.17;9.82;;;7.40;99.90;;;;;;5013672;28;20072;-79
2022/09/21 07:22:46;;;;;;;20.38;9.70;;;7.60;99.90;;;;;;5015578;28;20042;-78
2022/09/21 07:25:12;;;;;;;28.83;10.80;;;7.70;99.90;;;;;;4997272;28;20046;-78
2022/09/21 07:27:38;;;;;;;24.15;10.25;;;7.70;99.90;;;;;;5015351;28;20085;-78
2022/09/21 07:30:05;;;;;;;23.58;10.38;;;7.90;99.90;;;;;;5013695;28;20454;-78
2022/09/21 07:32:31;;;;;;;;;;;8.00;99.90;;;;;;5013942;28;20049;-77
2022/09/21 07:34:57;;;;;;;23.77;9.80;;;8.20;99.90;;;;;;5014641;28;19980;-77
2022/09/21 07:37:27;;;;;;;34.60;11.73;;;8.30;99.90;;;;;;5013459;28;20048;-77
2022/09/21 07:39:52;;;;;;;26.88;11.23;;;8.50;99.90;;;;;;4997169;28;20056;-77
2022/09/21 07:42:21;;;;;;;20.40;9.95;;;8.60;99.90;;;;;;5013898;28;20152;-83
2022/09/21 07:44:47;;;;;;;25.17;10.55;;;8.70;99.90;;;;;;5013245;28;20057;-76
2022/09/21 07:47:13;;;;;;;26.55;11.18;;;8.90;99.90;;;;;;5013656;28;20042;-77
2022/09/21 07:49:40;;;;;;;22.92;10.45;;;9.00;99.90;;;;;;5012983;28;20045;-76
2022/09/21 07:52:07;;;;;;;23.67;9.48;;;9.20;99.90;;;;;;5014415;28;20398;-77
2022/09/21 07:54:34;;;;;;;27.48;10.27;;;9.30;99.90;;;;;;5013527;28;20088;-76
2022/09/21 07:59:44;;;;;;;26.42;10.40;;;9.40;99.90;;;;;;5014233;28;20135;-77
2022/09/21 08:02:11;;;;;;;18.65;8.50;;;9.40;99.90;;;;;;5013548;28;20382;-75
2022/09/21 08:04:37;;;;;;;22.33;8.98;;;9.50;99.90;;;;;;5014216;28;20053;-76
2022/09/21 08:07:03;;;;;;;30.75;9.15;;;9.60;99.90;;;;;;5012970;28;20041;-76
2022/09/21 08:09:29;;;;;;;21.92;8.55;;;9.70;99.90;;;;;;5014364;28;20045;-76
2022/09/21 08:11:55;;;;;;;20.13;8.05;;;9.80;99.90;;;;;;5012873;28;20445;-76
2022/09/21 08:14:21;;;;;;;22.73;8.00;;;9.80;99.90;;;;;;4996854;28;20344;-82
2022/09/21 08:16:47;;;;;;;23.42;8.30;;;9.90;99.90;;;;;;5012948;28;20056;-75
2022/09/21 08:19:16;;;;;;;28.00;8.73;;;10.00;99.90;;;;;;5012539;28;20052;-78
2022/09/21 08:21:42;;;;;;;17.27;6.30;;;10.20;99.90;;;;;;5012974;28;20127;-75
2022/09/21 08:24:09;;;;;;;18.83;6.15;;;10.30;99.90;;;;;;5012717;28;20080;-78
2022/09/21 08:26:35;;;;;;;18.15;6.40;;;10.40;99.90;;;;;;5014020;28;20038;-76
2022/09/21 08:29:01;;;;;;;16.60;7.05;;;10.40;99.90;;;;;;5012685;28;20057;-76
2022/09/21 08:31:27;;;;;;;24.60;7.00;;;10.50;99.90;;;;;;5013192;28;20060;-77
2022/09/21 08:33:54;;;;;;;17.77;6.95;;;10.70;99.90;;;;;;5012659;28;20478;-77
2022/09/21 08:36:20;;;;;;;;;;;10.80;99.90;;;;;;5012640;28;20175;-76
2022/09/21 08:38:47;;;;;;;19.83;7.45;;;11.00;99.90;;;;;;5012405;28;20290;-76
2022/09/21 08:41:31;;;;;;;21.15;7.28;;;11.20;99.90;;;;;;4996049;28;20058;-76
2022/09/21 08:44:18;;;;;;;15.60;6.43;;;11.20;99.90;;;;;;5013030;28;20250;-78
2022/09/21 08:46:47;;;;;;;24.13;6.63;;;11.30;99.90;;;;;;5012790;28;20481;-82
2022/09/21 08:49:19;;;;;;;23.20;5.43;;;11.40;99.90;;;;;;5012207;28;20087;-77
2022/09/21 08:52:13;;;;;;;19.10;5.35;;;11.50;99.90;;;;;;5012631;28;20124;-79
2022/09/21 08:54:51;;;;;;;18.60;5.80;;;11.50;99.90;;;;;;5010548;28;20100;-78
2022/09/21 08:57:18;;;;;;;17.85;5.03;;;11.60;99.90;;;;;;4996644;28;20108;-82
2022/09/21 08:59:46;;;;;;;15.98;5.25;;;11.60;99.90;;;;;;4979717;28;20042;-77
2022/09/21 09:02:35;;;;;;;18.42;4.97;;;11.70;99.90;;;;;;5014067;28;20050;-78
2022/09/21 09:05:23;;;;;;;20.13;4.68;;;11.70;99.90;;;;;;5011960;28;20487;-78
2022/09/21 09:07:50;;;;;;;17.25;5.10;;;11.80;99.90;;;;;;5013060;28;20525;-79
2022/09/21 09:10:15;;;;;;;11.48;2.45;;;11.80;99.90;;;;;;5012248;28;20064;-78
2022/09/21 09:12:58;;;;;;;18.20;3.58;;;11.90;99.90;;;;;;5011998;28;20050;-77
2022/09/21 09:15:41;;;;;;;20.52;4.10;;;11.90;99.90;;;;;;5012901;28;20065;-79
2022/09/21 09:18:28;;;;;;;15.57;3.25;;;12.00;99.90;;;;;;5012271;28;20133;-78
2022/09/21 09:21:19;;;;;;;14.18;4.10;;;12.00;99.90;;;;;;5013517;28;20479;-80
2022/09/21 09:23:50;;;;;;;12.30;3.35;;;12.10;99.90;;;;;;5001131;28;20050;-74
2022/09/21 09:26:32;;;;;;;18.90;3.85;;;12.20;99.90;;;;;;5012741;28;20053;-76
2022/09/21 09:29:05;;;;;;;11.80;3.60;;;12.30;99.90;;;;;;5012174;28;20556;-78
2022/09/21 09:31:34;;;;;;;19.20;3.90;;;12.50;99.90;;;;;;5013254;28;20050;-78
2022/09/21 09:34:13;;;;;;;13.02;4.20;;;12.50;99.90;;;;;;5013732;28;20500;-76
2022/09/21 09:36:45;;;;;;;16.98;3.47;;;12.60;99.90;;;;;;5013165;28;20050;-76
2022/09/21 09:39:13;;;;;;;16.52;3.53;;;12.70;99.90;;;;;;5012148;28;20496;-78
2022/09/21 09:42:01;;;;;;;15.65;3.60;;;12.90;99.90;;;;;;5012953;28;20383;-78
2022/09/21 09:44:50;;;;;;;13.40;3.10;;;12.80;99.90;;;;;;5013158;28;20050;-77
2022/09/21 09:47:25;;;;;;;11.82;2.20;;;12.80;99.90;;;;;;5012187;28;20125;-78
2022/09/21 09:50:09;;;;;;;13.00;2.38;;;12.80;99.90;;;;;;5012109;28;20473;-77
2022/09/21 09:52:36;;;;;;;13.05;2.30;;;12.90;99.90;;;;;;5013411;28;20107;-78
2022/09/21 09:55:19;;;;;;;17.05;2.60;;;12.90;99.90;;;;;;5011176;28;20490;-78
2022/09/21 09:57:46;;;;;;;12.02;2.15;;;13.00;99.90;;;;;;5013340;28;20118;-79
2022/09/21 10:00:14;;;;;;;14.23;2.33;;;13.20;99.90;;;;;;5012789;28;20057;-77
2022/09/21 10:02:51;;;;;;;12.30;2.10;;;13.20;99.90;;;;;;5011580;28;20099;-82
2022/09/21 10:05:32;;;;;;;12.95;2.67;;;13.30;99.90;;;;;;5012167;28;20390;-78
2022/09/21 10:07:59;;;;;;;11.23;2.38;;;13.40;99.90;;;;;;5011824;28;20046;-79
2022/09/21 10:10:27;;;;;;;11.85;1.42;;;13.50;99.90;;;;;;4995048;28;20140;-79
2022/09/21 10:12:55;;;;;;;14.50;1.90;;;13.70;99.90;;;;;;5012490;28;20049;-77
2022/09/21 10:15:23;;;;;;;10.32;2.20;;;13.80;99.90;;;;;;5011502;28;20394;-79
2022/09/21 10:18:14;;;;;;;11.00;1.67;;;13.90;99.90;;;;;;5015667;28;20172;-83
2022/09/21 10:20:55;;;;;;;10.85;1.67;;;13.90;99.90;;;;;;5015546;28;20391;-78
2022/09/21 10:23:22;;;;;;;15.45;1.35;;;14.00;99.90;;;;;;5015785;28;20050;-79
2022/09/21 10:26:15;;;;;;;11.55;1.30;;;14.10;99.90;;;;;;5016585;28;20054;-82
2022/09/21 10:29:01;;;;;;;7.35;1.73;;;14.10;99.90;;;;;;5015794;28;20068;-79
2022/09/21 10:31:29;;;;;;;13.45;1.55;;;14.20;99.90;;;;;;5016735;28;20064;-77
2022/09/21 10:34:12;;;;;;;10.90;1.15;;;14.30;99.90;;;;;;5016316;28;20112;-78
2022/09/21 10:36:38;;;;;;;12.23;1.10;;;14.50;99.90;;;;;;5015064;28;20391;-82
2022/09/21 10:39:23;;;;;;;15.20;1.60;;;14.60;99.90;;;;;;5015591;28;20045;-78
2022/09/21 10:41:51;;;;;;;7.32;1.00;;;14.70;99.90;;;;;;5014887;28;20046;-78
2022/09/21 10:44:19;;;;;;;9.05;1.08;;;14.70;99.90;;;;;;5015066;28;20053;-78
2022/09/21 10:46:47;;;;;;;9.30;1.33;;;14.80;99.90;;;;;;5016584;28;20129;-78
2022/09/21 10:49:27;;;;;;;7.47;1.10;;;14.80;99.90;;;;;;5015731;28;20367;-79
2022/09/21 10:51:57;;;;;;;9.40;0.90;;;14.80;99.90;;;;;;5016401;28;20429;-79
2022/09/21 10:54:30;;;;;;;8.57;0.85;;;14.60;99.90;;;;;;5014268;28;20050;-78
2022/09/21 10:57:09;;;;;;;8.80;0.85;;;14.40;99.90;;;;;;5015321;28;20512;-80
2022/09/21 10:59:36;;;;;;;10.15;0.80;;;14.30;99.90;;;;;;5015441;28;20077;-79
2022/09/21 11:02:22;;;;;;;7.10;1.10;;;14.30;99.90;;;;;;5014344;28;20050;-79
2022/09/21 11:04:55;;;;;;;6.47;0.63;;;14.20;99.90;;;;;;5014481;28;20160;-79
2022/09/21 11:07:35;;;;;;;8.10;1.10;;;14.30;99.90;;;;;;5014711;28;20046;-79
2022/09/21 11:10:23;;;;;;;9.13;0.60;;;14.50;99.90;;;;;;5014518;28;20088;-79
2022/09/21 11:13:08;;;;;;;6.55;0.90;;;14.60;99.90;;;;;;4998420;28;20050;-78
2022/09/21 11:15:59;;;;;;;13.10;0.97;;;14.80;99.90;;;;;;5015941;28;20046;-78
2022/09/21 11:18:53;;;;;;;3.35;0.68;;;14.90;99.90;;;;;;5015158;28;20120;-77
2022/09/21 11:21:51;;;;;;;8.93;0.80;;;15.10;99.90;;;;;;5014557;28;20050;-77
2022/09/21 11:24:31;;;;;;;7.25;0.88;;;15.20;99.90;;;;;;5014865;28;20104;-77
2022/09/21 11:27:23;;;;;;;6.57;0.70;;;15.30;99.90;;;;;;5014464;28;20057;-78
2022/09/21 11:30:07;;;;;;;6.05;0.50;;;15.40;99.90;;;;;;5009877;28;20128;-76
2022/09/21 11:33:12;;;;;;;11.05;0.85;;;15.40;99.90;;;;;;5015167;28;20151;-77
2022/09/21 11:35:44;;;;;;;7.07;0.47;;;15.20;99.90;;;;;;5013856;28;20050;-77
2022/09/21 11:38:47;;;;;;;4.80;0.40;;;14.90;99.90;;;;;;5015031;28;20081;-76
2022/09/21 11:41:34;;;;;;;14.23;0.95;;;14.80;99.90;;;;;;4997627;28;20494;-77
2022/09/21 11:44:25;;;;;;;5.22;0.60;;;14.60;99.90;;;;;;4998175;28;20426;-78
2022/09/21 11:47:21;;;;;;;10.60;0.68;;;14.40;99.90;;;;;;5014789;28;20077;-75
2022/09/21 11:49:53;;;;;;;7.75;0.80;;;14.30;99.90;;;;;;5014173;28;20502;-77
2022/09/21 11:52:24;;;;;;;12.38;0.70;;;14.20;99.90;;;;;;5014642;28;20132;-78
2022/09/21 11:54:57;;;;;;;7.20;0.60;;;14.30;99.90;;;;;;5013594;28;20046;-76
2022/09/21 11:57:28;;;;;;;6.38;0.60;;;14.50;99.90;;;;;;5015161;28;20091;-76
2022/09/21 12:00:07;;;;;;;6.43;0.70;;;14.80;99.90;;;;;;4997090;28;20061;-79
2022/09/21 12:02:54;;;;;;;8.07;0.50;;;15.00;99.90;;;;;;5015326;28;20428;-77
2022/09/21 12:05:33;;;;;;;9.50;0.90;;;15.10;99.90;;;;;;5013502;28;20065;-79
2022/09/21 12:08:38;;;;;;;9.38;0.70;;;15.00;99.90;;;;;;5014312;28;20045;-75
2022/09/21 12:11:19;;;;;;;7.78;0.50;;;14.90;99.90;;;;;;5013881;28;20140;-76
2022/09/21 12:13:53;;;;;;;8.43;0.70;;;15.00;99.90;;;;;;5014908;28;20049;-81
2022/09/21 12:16:29;;;;;;;9.75;0.63;;;15.10;99.90;;;;;;4996895;28;20046;-77
2022/09/21 12:19:14;;;;;;;6.97;0.65;;;15.10;99.90;;;;;;5013461;28;20049;-77
2022/09/21 12:21:47;;;;;;;12.52;0.70;;;15.10;99.90;;;;;;5013190;28;20064;-76
2022/09/21 12:24:29;;;;;;;4.55;0.50;;;15.20;99.90;;;;;;5012640;28;20056;-76
2022/09/21 12:27:05;;;;;;;12.18;1.02;;;15.30;99.90;;;;;;5013408;28;20053;-76
2022/09/21 12:29:43;;;;;;;5.20;0.70;;;15.40;99.90;;;;;;5013915;28;20040;-75
2022/09/21 12:32:59;;;;;;;10.50;0.60;;;15.50;99.90;;;;;;4997125;28;20049;-75
2022/09/21 12:35:46;;;;;;;8.13;0.47;;;15.80;99.90;;;;;;4971781;28;20082;-74
2022/09/21 12:38:36;;;;;;;9.02;0.70;;;15.90;99.90;;;;;;5008968;28;20152;-75
2022/09/21 12:41:06;;;;;;;13.90;0.60;;;15.80;99.90;;;;;;5012749;28;20046;-75
2022/09/21 12:43:38;;;;;;;9.10;0.70;;;15.70;99.90;;;;;;5012553;28;20498;-75
2022/09/21 12:46:20;;;;;;;4.28;0.40;;;15.70;99.90;;;;;;5013188;28;20050;-74
2022/09/21 12:48:46;;;;;;;5.18;0.50;;;15.80;99.90;;;;;;5013367;28;20541;-74
2022/09/21 12:51:23;;;;;;;8.68;0.60;;;15.70;99.90;;;;;;5013972;28;20049;-75
2022/09/21 12:53:52;;;;;;;9.57;0.82;;;15.50;99.90;;;;;;5012685;28;20045;-81
2022/09/21 12:56:19;;;;;;;6.65;0.50;;;15.40;99.90;;;;;;4996112;28;20052;-74
2022/09/21 12:59:21;;;;;;;6.72;0.50;;;15.20;99.90;;;;;;4995826;28;20402;-78
2022/09/21 13:02:14;;;;;;;5.75;0.52;;;15.20;99.90;;;;;;5013602;28;20111;-76
2022/09/21 13:04:48;;;;;;;5.70;0.50;;;15.30;99.90;;;;;;5012040;28;20042;-78
2022/09/21 13:07:41;;;;;;;9.15;0.80;;;15.40;99.90;;;;;;5013440;28;20038;-74
2022/09/21 13:10:19;;;;;;;9.00;0.50;;;15.60;99.90;;;;;;5013054;28;20042;-75
2022/09/21 13:12:51;;;;;;;4.53;0.40;;;15.70;99.90;;;;;;5012334;28;20493;-74
2022/09/21 13:15:28;;;;;;;6.72;0.50;;;15.80;99.90;;;;;;5012536;28;20057;-75
2022/09/21 13:18:20;;;;;;;7.30;0.50;;;15.90;99.90;;;;;;5013828;28;20069;-80
2022/09/21 13:20:45;;;;;;;6.80;0.60;;;16.10;99.90;;;;;;5008168;28;20073;-73